Time;durP1;ratioP1;P1;durP2;ratioP2;P2;SDS_P1;SDS_P2;PMS_P1;PMS_P2;Temp;Humidity;BMP_temperature;BMP_pressure;BME280_temperature;BME280_humidity;BME280_pressure;Samples;Min_cycle;Max_cycle;Signal;HPM_P1;HPM_P2
2023/06/21 00:00:00;;;;;;;0.00;0.00;;;20.30;87.50;;;;;;4995050;28;20112;-68
2023/06/21 00:02:28;;;;;;;0.00;0.00;;;20.30;87.50;;;;;;5030980;28;20029;-68
2023/06/21 00:04:55;;;;;;;0.00;0.00;;;20.20;87.40;;;;;;5041767;28;20042;-67
2023/06/21 00:07:23;;;;;;;0.00;0.00;;;20.30;87.50;;;;;;5029511;28;20112;-68
2023/06/21 00:09:49;;;;;;;0.00;0.00;;;20.20;87.40;;;;;;5032246;28;20087;-68
2023/06/21 00:12:15;;;;;;;0.60;0.60;;;20.20;87.50;;;;;;4992706;28;20123;-68
2023/06/21 00:14:40;;;;;;;0.00;0.00;;;20.20;87.50;;;;;;5012651;28;20037;-67
2023/06/21 00:17:06;;;;;;;0.00;0.00;;;20.20;87.70;;;;;;5031529;28;20037;-67
2023/06/21 00:19:31;;;;;;;0.00;0.00;;;20.20;87.80;;;;;;5024740;28;20447;-68
2023/06/21 00:21:58;;;;;;;0.00;0.00;;;20.20;87.80;;;;;;5039886;28;20048;-68
2023/06/21 00:24:23;;;;;;;0.00;0.00;;;20.10;87.90;;;;;;5023782;28;20081;-68
2023/06/21 00:26:49;;;;;;;0.00;0.00;;;20.20;88.30;;;;;;5048510;28;20075;-67
2023/06/21 00:29:15;;;;;;;2.63;1.00;;;20.10;88.30;;;;;;5055286;28;20075;-68
2023/06/21 00:31:40;;;;;;;0.30;0.30;;;20.20;88.10;;;;;;5055490;28;20516;-68
2023/06/21 00:34:06;;;;;;;0.15;0.15;;;20.20;87.40;;;;;;5042441;28;20406;-68
2023/06/21 00:36:32;;;;;;;0.00;0.00;;;20.20;88.10;;;;;;5038723;28;20627;-67
2023/06/21 00:38:57;;;;;;;0.00;0.00;;;20.10;87.70;;;;;;5018075;28;20052;-68
2023/06/21 00:41:23;;;;;;;0.00;0.00;;;20.20;87.70;;;;;;5024250;28;20033;-68
2023/06/21 00:43:48;;;;;;;0.00;0.00;;;20.20;88.20;;;;;;5037169;28;20049;-68
2023/06/21 00:46:16;;;;;;;0.08;0.08;;;20.20;88.70;;;;;;5002965;28;20049;-68
2023/06/21 00:48:41;;;;;;;0.00;0.00;;;20.20;88.90;;;;;;5039149;28;20418;-67
2023/06/21 00:51:07;;;;;;;0.00;0.00;;;20.10;88.50;;;;;;5021514;28;20042;-68
2023/06/21 00:53:33;;;;;;;0.43;0.43;;;20.10;88.30;;;;;;5017267;28;20065;-69
2023/06/21 00:56:02;;;;;;;0.00;0.00;;;20.10;88.70;;;;;;5035547;28;20049;-67
2023/06/21 00:58:28;;;;;;;5.13;0.55;;;20.10;88.60;;;;;;5025966;28;20136;-67
2023/06/21 01:00:54;;;;;;;1.73;1.15;;;20.00;88.30;;;;;;5049288;28;20566;-68
2023/06/21 01:03:20;;;;;;;0.10;0.10;;;20.00;88.30;;;;;;5044520;28;20567;-69
2023/06/21 01:06:37;;;;;;;0.43;0.43;;;20.00;88.20;;;;;;5035209;28;20069;-68
2023/06/21 01:09:36;;;;;;;0.00;0.00;;;19.90;88.00;;;;;;4986323;28;20069;-68
2023/06/21 01:12:19;;;;;;;0.00;0.00;;;19.90;88.30;;;;;;5035480;28;20084;-68
2023/06/21 01:15:02;;;;;;;0.57;0.43;;;19.90;88.20;;;;;;5043891;28;20245;-69
2023/06/21 01:17:33;;;;;;;0.63;0.52;;;19.90;88.70;;;;;;5034464;28;20449;-69
2023/06/21 01:19:59;;;;;;;0.80;0.70;;;19.80;88.50;;;;;;5036396;28;20041;-68
2023/06/21 01:23:02;;;;;;;0.10;0.10;;;19.80;88.20;;;;;;5051931;28;20509;-68
2023/06/21 01:25:45;;;;;;;0.40;0.40;;;19.70;88.00;;;;;;5041214;28;20045;-69
2023/06/21 01:28:30;;;;;;;0.00;0.00;;;19.70;87.70;;;;;;5049741;28;20116;-69
2023/06/21 01:30:59;;;;;;;0.10;0.10;;;19.60;88.00;;;;;;5035283;28;20052;-68
2023/06/21 01:33:27;;;;;;;0.35;0.25;;;19.60;88.10;;;;;;5032139;28;20041;-69
2023/06/21 01:35:54;;;;;;;0.47;0.47;;;19.60;88.10;;;;;;5031480;28;20060;-68
2023/06/21 01:38:20;;;;;;;0.25;0.25;;;19.60;87.80;;;;;;5038357;28;20414;-68
2023/06/21 01:40:46;;;;;;;0.00;0.00;;;19.50;87.70;;;;;;5033363;28;20056;-67
2023/06/21 01:43:13;;;;;;;0.10;0.10;;;19.50;87.90;;;;;;5031810;28;20038;-67
2023/06/21 01:45:38;;;;;;;0.00;0.00;;;19.50;88.00;;;;;;5041943;28;20037;-67
2023/06/21 01:48:05;;;;;;;0.38;0.38;;;19.50;87.70;;;;;;5031723;28;20092;-67
2023/06/21 01:50:31;;;;;;;0.93;0.25;;;19.50;88.60;;;;;;5013415;28;20050;-67
2023/06/21 01:52:58;;;;;;;0.05;0.05;;;19.50;88.60;;;;;;5019920;28;20064;-68
2023/06/21 01:55:25;;;;;;;0.00;0.00;;;19.50;88.40;;;;;;5031178;28;20053;-67
2023/06/21 01:57:52;;;;;;;0.40;0.40;;;19.40;88.40;;;;;;5031083;28;20045;-68
2023/06/21 02:00:21;;;;;;;0.00;0.00;;;19.50;88.20;;;;;;5037845;28;20044;-67
2023/06/21 02:02:54;;;;;;;0.05;0.05;;;19.50;88.20;;;;;;5032505;28;20041;-68
2023/06/21 02:05:21;;;;;;;0.00;0.00;;;19.50;88.70;;;;;;5021009;28;20565;-67
2023/06/21 02:07:48;;;;;;;0.00;0.00;;;19.50;88.40;;;;;;5017189;28;20410;-67
2023/06/21 02:10:15;;;;;;;0.10;0.10;;;19.50;88.20;;;;;;5036991;28;20037;-67
2023/06/21 02:12:47;;;;;;;0.00;0.00;;;19.50;88.60;;;;;;5030990;28;20041;-67
2023/06/21 02:15:13;;;;;;;0.10;0.10;;;19.40;89.10;;;;;;5035919;28;20049;-67
2023/06/21 02:17:39;;;;;;;0.03;0.03;;;19.40;88.70;;;;;;5026717;28;20077;-68
2023/06/21 02:20:11;;;;;;;0.00;0.00;;;19.40;88.60;;;;;;5041540;28;20060;-67
2023/06/21 02:22:39;;;;;;;0.00;0.00;;;19.30;88.50;;;;;;5013960;28;20485;-68
2023/06/21 02:25:04;;;;;;;0.40;0.40;;;19.30;88.50;;;;;;5032283;28;20084;-67
2023/06/21 02:27:30;;;;;;;0.80;0.40;;;19.30;88.70;;;;;;5028405;28;20384;-68
2023/06/21 02:29:56;;;;;;;0.15;0.15;;;19.20;88.50;;;;;;5038849;28;20103;-67
2023/06/21 02:32:22;;;;;;;0.10;0.10;;;19.20;88.70;;;;;;5034053;28;20129;-68
2023/06/21 02:34:47;;;;;;;0.00;0.00;;;19.10;88.90;;;;;;5037870;28;20045;-67
2023/06/21 02:37:13;;;;;;;0.03;0.03;;;19.10;88.80;;;;;;5036125;28;20485;-67
2023/06/21 02:39:39;;;;;;;6.13;1.65;;;19.10;88.70;;;;;;5035948;28;20038;-67
2023/06/21 02:42:04;;;;;;;0.30;0.30;;;19.10;88.80;;;;;;5030307;28;20056;-67
2023/06/21 02:44:30;;;;;;;0.65;0.43;;;19.10;89.00;;;;;;5031918;28;20029;-67
2023/06/21 02:46:59;;;;;;;0.00;0.00;;;19.10;89.00;;;;;;5027654;28;20048;-68
2023/06/21 02:49:25;;;;;;;0.00;0.00;;;19.10;88.80;;;;;;5030276;28;20051;-67
2023/06/21 02:51:52;;;;;;;0.30;0.28;;;19.10;88.90;;;;;;5038688;28;20046;-67
2023/06/21 02:54:17;;;;;;;0.10;0.10;;;19.10;88.60;;;;;;5038822;28;20103;-67
2023/06/21 02:56:43;;;;;;;0.10;0.10;;;19.10;88.30;;;;;;5039507;28;20041;-67
2023/06/21 02:59:09;;;;;;;0.32;0.32;;;19.10;88.30;;;;;;5036433;28;20039;-67
2023/06/21 03:01:35;;;;;;;0.15;0.15;;;19.00;88.60;;;;;;5034414;28;20045;-67
2023/06/21 03:04:01;;;;;;;1.15;0.65;;;19.00;88.70;;;;;;5029569;28;20494;-67
2023/06/21 03:06:29;;;;;;;0.22;0.17;;;19.00;88.50;;;;;;5021904;28;20056;-67
2023/06/21 03:08:55;;;;;;;0.98;0.70;;;19.00;88.50;;;;;;5022370;28;20056;-67
2023/06/21 03:11:21;;;;;;;0.05;0.05;;;19.00;88.60;;;;;;5043983;28;20569;-66
2023/06/21 03:13:47;;;;;;;6.38;2.20;;;18.90;88.40;;;;;;5039754;28;20168;-67
2023/06/21 03:16:13;;;;;;;0.50;0.45;;;18.90;88.40;;;;;;5044291;28;20051;-67
2023/06/21 03:18:39;;;;;;;0.05;0.05;;;18.90;88.60;;;;;;5028234;28;20041;-67
2023/06/21 03:21:05;;;;;;;1.02;0.45;;;18.90;88.80;;;;;;5035010;28;20092;-68
2023/06/21 03:23:31;;;;;;;0.80;0.60;;;18.80;88.90;;;;;;5049797;28;20044;-68
2023/06/21 03:25:56;;;;;;;0.10;0.10;;;18.80;88.90;;;;;;5048816;28;20106;-68
2023/06/21 03:28:22;;;;;;;0.00;0.00;;;18.70;89.00;;;;;;5049737;28;20049;-68
2023/06/21 03:30:47;;;;;;;4.80;0.57;;;18.70;88.80;;;;;;5038045;28;20052;-67
2023/06/21 03:33:13;;;;;;;0.15;0.15;;;18.70;88.80;;;;;;5042323;28;20072;-68
2023/06/21 03:35:38;;;;;;;0.10;0.10;;;18.60;88.80;;;;;;5039839;28;20053;-67
2023/06/21 03:38:05;;;;;;;5.05;1.00;;;18.60;88.90;;;;;;5029560;28;20116;-67
2023/06/21 03:40:30;;;;;;;0.00;0.00;;;18.60;88.70;;;;;;5017916;28;20041;-67
2023/06/21 03:42:56;;;;;;;0.00;0.00;;;18.60;88.70;;;;;;5029786;28;20067;-67
2023/06/21 03:45:22;;;;;;;0.00;0.00;;;18.60;89.10;;;;;;5014992;28;20059;-67
2023/06/21 03:47:47;;;;;;;0.00;0.00;;;18.50;89.20;;;;;;5029236;28;20044;-68
2023/06/21 03:50:13;;;;;;;0.00;0.00;;;18.50;89.10;;;;;;5040328;28;20133;-68
2023/06/21 03:52:39;;;;;;;0.45;0.45;;;18.50;89.00;;;;;;5029133;28;20415;-68
2023/06/21 03:55:06;;;;;;;0.00;0.00;;;18.50;89.10;;;;;;5015407;28;20050;-67
2023/06/21 03:57:32;;;;;;;0.80;0.63;;;18.50;88.90;;;;;;5028808;28;20046;-67
2023/06/21 03:59:58;;;;;;;0.00;0.00;;;18.50;88.80;;;;;;5034376;28;20124;-67
2023/06/21 04:02:24;;;;;;;0.00;0.00;;;18.40;88.80;;;;;;5028944;28;20120;-67
2023/06/21 04:04:50;;;;;;;0.05;0.05;;;18.40;88.70;;;;;;5009300;28;20057;-67
2023/06/21 04:07:19;;;;;;;0.20;0.20;;;18.40;88.80;;;;;;5026762;28;20041;-67
2023/06/21 04:09:45;;;;;;;0.10;0.10;;;18.40;88.70;;;;;;5031404;28;20129;-67
2023/06/21 04:12:11;;;;;;;0.10;0.10;;;18.40;88.60;;;;;;5031067;28;20467;-67
2023/06/21 04:14:36;;;;;;;0.15;0.15;;;18.30;88.80;;;;;;5021287;28;20052;-67
2023/06/21 04:17:02;;;;;;;0.00;0.00;;;18.40;88.90;;;;;;5025782;28;20045;-67
2023/06/21 04:19:28;;;;;;;0.55;0.30;;;18.40;88.80;;;;;;5035201;28;20049;-67
2023/06/21 04:21:54;;;;;;;0.00;0.00;;;18.30;88.80;;;;;;5023237;28;20056;-68
2023/06/21 04:24:19;;;;;;;0.10;0.10;;;18.40;88.80;;;;;;5048541;28;20048;-67
2023/06/21 04:26:45;;;;;;;1.35;0.25;;;18.40;88.60;;;;;;5047796;28;20049;-67
2023/06/21 04:29:10;;;;;;;0.10;0.10;;;18.40;88.50;;;;;;5046564;28;20056;-67
2023/06/21 04:31:37;;;;;;;0.25;0.25;;;18.40;88.40;;;;;;5036278;28;20049;-68
2023/06/21 04:34:04;;;;;;;0.00;0.00;;;18.40;88.20;;;;;;5029080;28;20053;-67
2023/06/21 04:36:30;;;;;;;0.00;0.00;;;18.40;88.50;;;;;;5044308;28;20536;-68
2023/06/21 04:38:55;;;;;;;0.22;0.22;;;18.40;88.60;;;;;;5048167;28;20060;-68
2023/06/21 04:41:21;;;;;;;0.00;0.00;;;18.40;88.60;;;;;;5026926;28;20034;-67
2023/06/21 04:43:47;;;;;;;0.00;0.00;;;18.50;88.60;;;;;;5016598;28;20056;-67
2023/06/21 04:46:21;;;;;;;0.00;0.00;;;18.50;88.50;;;;;;5035252;28;20041;-68
2023/06/21 04:48:47;;;;;;;0.10;0.10;;;18.50;88.70;;;;;;5041579;28;20132;-67
2023/06/21 04:51:15;;;;;;;0.00;0.00;;;18.50;88.40;;;;;;5003336;28;20045;-68
2023/06/21 04:53:45;;;;;;;0.80;0.80;;;18.50;88.70;;;;;;5028307;28;20041;-67
2023/06/21 04:56:14;;;;;;;0.00;0.00;;;18.50;88.70;;;;;;5025329;28;20045;-67
2023/06/21 04:58:40;;;;;;;0.10;0.10;;;18.50;88.70;;;;;;5035713;28;20414;-67
2023/06/21 05:01:06;;;;;;;0.00;0.00;;;18.50;88.40;;;;;;5016761;28;20046;-68
2023/06/21 05:03:32;;;;;;;0.00;0.00;;;18.50;88.20;;;;;;5017429;28;20063;-67
2023/06/21 05:05:59;;;;;;;0.47;0.47;;;18.50;88.30;;;;;;5029171;28;20518;-67
2023/06/21 05:08:24;;;;;;;0.00;0.00;;;18.50;88.40;;;;;;5031529;28;20041;-67
2023/06/21 05:10:50;;;;;;;0.00;0.00;;;18.50;88.10;;;;;;5038621;28;20041;-67
2023/06/21 05:13:19;;;;;;;0.00;0.00;;;18.50;88.30;;;;;;5032977;28;20512;-67
2023/06/21 05:15:45;;;;;;;0.10;0.10;;;18.60;88.20;;;;;;5032998;28;20049;-67
2023/06/21 05:18:10;;;;;;;0.00;0.00;;;18.60;88.00;;;;;;5033764;28;20040;-67
2023/06/21 05:20:36;;;;;;;0.00;0.00;;;18.60;88.00;;;;;;5033308;28;20038;-68
2023/06/21 05:23:01;;;;;;;0.10;0.10;;;18.70;88.00;;;;;;5040881;28;20079;-67
2023/06/21 05:25:27;;;;;;;6.28;1.42;;;18.60;88.10;;;;;;5023085;28;20041;-68
2023/06/21 05:27:53;;;;;;;0.00;0.00;;;18.60;87.80;;;;;;5035974;28;20041;-68
2023/06/21 05:30:18;;;;;;;0.55;0.30;;;18.70;88.00;;;;;;5036007;28;20136;-67
2023/06/21 05:32:45;;;;;;;0.20;0.20;;;18.70;88.10;;;;;;5031889;28;20128;-68
2023/06/21 05:35:10;;;;;;;0.10;0.10;;;18.80;87.90;;;;;;5043615;28;20057;-67
2023/06/21 05:37:36;;;;;;;0.22;0.20;;;18.90;87.70;;;;;;5040023;28;20084;-67
2023/06/21 05:40:04;;;;;;;0.43;0.40;;;18.80;87.40;;;;;;5031542;28;20037;-68
2023/06/21 05:42:29;;;;;;;0.00;0.00;;;18.80;87.70;;;;;;5043855;28;20513;-67
2023/06/21 05:44:55;;;;;;;0.30;0.30;;;18.80;87.90;;;;;;5028841;28;20034;-67
2023/06/21 05:47:21;;;;;;;0.00;0.00;;;18.80;87.70;;;;;;5036802;28;20457;-67
2023/06/21 05:49:48;;;;;;;0.10;0.10;;;18.90;87.80;;;;;;5021558;28;20081;-67
2023/06/21 05:52:14;;;;;;;0.00;0.00;;;18.90;87.70;;;;;;5030380;28;20490;-67
2023/06/21 05:54:42;;;;;;;0.00;0.00;;;19.00;87.80;;;;;;5020428;28;20046;-67
2023/06/21 05:57:08;;;;;;;0.00;0.00;;;19.00;87.50;;;;;;5038276;28;20060;-67
2023/06/21 05:59:33;;;;;;;0.00;0.00;;;19.00;87.30;;;;;;5052032;28;20041;-67
2023/06/21 06:01:59;;;;;;;0.20;0.20;;;19.00;87.30;;;;;;5047494;28;20120;-68
2023/06/21 06:04:24;;;;;;;0.00;0.00;;;19.10;87.40;;;;;;5050204;28;20045;-67
2023/06/21 06:06:50;;;;;;;0.03;0.03;;;19.10;87.30;;;;;;5046596;28;20041;-66
2023/06/21 06:09:15;;;;;;;0.10;0.10;;;19.20;87.00;;;;;;5028396;28;20549;-66
2023/06/21 06:11:41;;;;;;;0.20;0.20;;;19.20;86.80;;;;;;5020544;28;20064;-66
2023/06/21 06:14:10;;;;;;;0.22;0.20;;;19.20;86.40;;;;;;5021817;28;20053;-66
2023/06/21 06:16:36;;;;;;;0.10;0.10;;;19.20;86.20;;;;;;5021535;28;20141;-68
2023/06/21 06:19:02;;;;;;;0.32;0.30;;;19.20;86.00;;;;;;5030730;28;20123;-66
2023/06/21 06:21:28;;;;;;;0.00;0.00;;;19.30;86.40;;;;;;5029514;28;20081;-67
2023/06/21 06:23:54;;;;;;;0.17;0.17;;;19.40;86.60;;;;;;5030442;28;20156;-67
2023/06/21 06:26:25;;;;;;;0.10;0.10;;;19.50;86.30;;;;;;5030591;28;20065;-67
2023/06/21 06:28:51;;;;;;;0.10;0.10;;;19.40;85.60;;;;;;5048369;28;20052;-67
2023/06/21 06:31:22;;;;;;;1.65;1.38;;;19.50;85.80;;;;;;5040564;28;20068;-67
2023/06/21 06:33:48;;;;;;;0.00;0.00;;;19.60;85.70;;;;;;5037536;28;20058;-68
2023/06/21 06:36:13;;;;;;;0.00;0.00;;;19.60;85.60;;;;;;5030950;28;20099;-68
2023/06/21 06:38:39;;;;;;;31.67;0.80;;;19.60;85.40;;;;;;5022331;28;20045;-67
2023/06/21 06:41:04;;;;;;;0.00;0.00;;;19.70;85.50;;;;;;5023012;28;20049;-67
2023/06/21 06:43:32;;;;;;;0.00;0.00;;;19.70;85.20;;;;;;5010601;28;20508;-68
2023/06/21 06:45:58;;;;;;;0.00;0.00;;;19.70;84.90;;;;;;5027360;28;20470;-68
2023/06/21 06:48:24;;;;;;;0.00;0.00;;;19.70;84.30;;;;;;5009789;28;20144;-67
2023/06/21 06:50:49;;;;;;;0.00;0.00;;;19.60;84.20;;;;;;5026596;28;20045;-67
2023/06/21 06:53:15;;;;;;;0.10;0.10;;;19.70;84.20;;;;;;5022395;28;20092;-65
2023/06/21 06:55:41;;;;;;;0.85;0.52;;;19.80;84.00;;;;;;5027655;28;20083;-66
2023/06/21 06:58:06;;;;;;;0.05;0.05;;;19.70;84.00;;;;;;5027837;28;20103;-65
2023/06/21 07:00:32;;;;;;;0.00;0.00;;;19.70;83.70;;;;;;5027776;28;20049;-66
2023/06/21 07:02:57;;;;;;;0.00;0.00;;;19.80;83.90;;;;;;5023474;28;20064;-67
2023/06/21 07:05:24;;;;;;;0.80;0.35;;;19.70;83.90;;;;;;5023628;28;20128;-66
2023/06/21 07:07:50;;;;;;;0.08;0.08;;;19.80;84.00;;;;;;5025187;28;20047;-65
2023/06/21 07:10:16;;;;;;;0.00;0.00;;;19.90;84.10;;;;;;5025099;28;20054;-66
2023/06/21 07:12:42;;;;;;;0.00;0.00;;;19.90;83.90;;;;;;5024819;28;20049;-65
2023/06/21 07:15:08;;;;;;;0.40;0.40;;;20.00;83.60;;;;;;5024197;28;20114;-73
2023/06/21 07:17:34;;;;;;;0.00;0.00;;;20.10;83.70;;;;;;5026342;28;20095;-73
2023/06/21 07:19:59;;;;;;;0.00;0.00;;;20.10;83.40;;;;;;5026143;28;20495;-74
2023/06/21 07:22:25;;;;;;;0.00;0.00;;;20.20;83.50;;;;;;5028061;28;20053;-73
2023/06/21 07:24:50;;;;;;;0.10;0.10;;;20.20;83.00;;;;;;5026057;28;20061;-67
2023/06/21 07:27:16;;;;;;;0.15;0.15;;;20.20;82.60;;;;;;5009724;28;20047;-66
2023/06/21 07:29:41;;;;;;;0.00;0.00;;;20.20;82.30;;;;;;5027386;28;20080;-67
2023/06/21 07:32:07;;;;;;;2.38;0.88;;;20.20;82.20;;;;;;5023299;28;20041;-67
2023/06/21 07:34:33;;;;;;;0.10;0.10;;;20.20;80.90;;;;;;5023869;28;20057;-67
2023/06/21 07:36:58;;;;;;;0.00;0.00;;;20.10;80.20;;;;;;5024859;28;20077;-68
2023/06/21 07:39:24;;;;;;;0.00;0.00;;;20.20;80.40;;;;;;5022677;28;20143;-68
2023/06/21 07:41:50;;;;;;;0.00;0.00;;;20.30;80.80;;;;;;5025725;28;20037;-68
2023/06/21 07:44:17;;;;;;;0.10;0.10;;;20.30;80.70;;;;;;5026574;28;20040;-69
2023/06/21 07:46:43;;;;;;;0.00;0.00;;;20.40;80.70;;;;;;5007557;28;20045;-68
2023/06/21 07:49:08;;;;;;;0.00;0.00;;;20.40;80.20;;;;;;5023842;28;20624;-68
2023/06/21 07:51:34;;;;;;;0.00;0.00;;;20.50;80.60;;;;;;5020813;28;20120;-67
2023/06/21 07:53:59;;;;;;;0.00;0.00;;;20.50;80.70;;;;;;5022195;28;20064;-67
2023/06/21 07:56:25;;;;;;;2.80;0.43;;;20.50;80.10;;;;;;5024968;28;20087;-68
2023/06/21 07:58:51;;;;;;;0.20;0.20;;;20.60;79.90;;;;;;5004472;28;20038;-67
2023/06/21 08:01:16;;;;;;;0.25;0.25;;;20.60;79.80;;;;;;5028311;28;20128;-68
2023/06/21 08:03:42;;;;;;;0.00;0.00;;;20.70;80.00;;;;;;5019995;28;20128;-69
2023/06/21 08:06:08;;;;;;;0.00;0.00;;;20.80;80.20;;;;;;5009795;28;20050;-67
2023/06/21 08:08:33;;;;;;;0.52;0.13;;;20.80;79.50;;;;;;4992156;28;20061;-68
2023/06/21 08:10:59;;;;;;;0.22;0.22;;;20.80;79.30;;;;;;5026617;28;20053;-68
2023/06/21 08:13:26;;;;;;;0.00;0.00;;;20.90;79.40;;;;;;5006375;28;20438;-67
2023/06/21 08:15:52;;;;;;;0.10;0.10;;;20.90;79.10;;;;;;5030729;28;20085;-68
2023/06/21 08:18:17;;;;;;;0.00;0.00;;;21.00;78.40;;;;;;5026901;28;20135;-68
2023/06/21 08:20:43;;;;;;;0.00;0.00;;;21.10;78.10;;;;;;5027810;28;20519;-67
2023/06/21 08:23:09;;;;;;;0.00;0.00;;;21.10;77.10;;;;;;5025989;28;20841;-67
2023/06/21 08:25:37;;;;;;;0.00;0.00;;;21.10;77.80;;;;;;5023761;28;20521;-68
2023/06/21 08:28:04;;;;;;;0.00;0.00;;;21.20;77.90;;;;;;5008024;28;20042;-68
2023/06/21 08:30:30;;;;;;;0.10;0.10;;;21.20;77.20;;;;;;5024908;28;20052;-68
2023/06/21 08:32:55;;;;;;;0.00;0.00;;;21.30;76.90;;;;;;5008947;28;20064;-66
2023/06/21 08:35:21;;;;;;;0.00;0.00;;;21.30;76.30;;;;;;4997400;28;20054;-68
2023/06/21 08:37:59;;;;;;;0.00;0.00;;;21.40;76.50;;;;;;5007135;28;20042;-68
2023/06/21 08:40:27;;;;;;;0.00;0.00;;;21.50;76.70;;;;;;5002091;28;20050;-67
2023/06/21 08:42:56;;;;;;;0.08;0.08;;;21.50;77.00;;;;;;5007352;28;20038;-67
2023/06/21 08:45:22;;;;;;;0.00;0.00;;;21.60;76.10;;;;;;4990035;28;20078;-67
2023/06/21 08:47:49;;;;;;;0.00;0.00;;;21.70;76.40;;;;;;5011194;28;20145;-66
2023/06/21 08:50:16;;;;;;;0.05;0.05;;;21.70;75.10;;;;;;5012788;28;20729;-66
2023/06/21 08:52:43;;;;;;;0.00;0.00;;;21.70;75.60;;;;;;5009159;28;20049;-67
2023/06/21 08:55:10;;;;;;;0.32;0.32;;;21.80;74.50;;;;;;5007497;28;20124;-67
2023/06/21 08:57:49;;;;;;;0.00;0.00;;;21.80;74.60;;;;;;5006504;28;20117;-66
2023/06/21 09:00:47;;;;;;;2.10;1.02;;;21.80;74.20;;;;;;5007767;28;20053;-67
2023/06/21 09:03:29;;;;;;;0.00;0.00;;;21.90;74.40;;;;;;4988489;28;20090;-67
2023/06/21 09:06:09;;;;;;;0.00;0.00;;;22.00;74.80;;;;;;5007546;28;20085;-65
2023/06/21 09:08:37;;;;;;;0.00;0.00;;;22.10;74.60;;;;;;5009697;28;20077;-67
2023/06/21 09:11:05;;;;;;;0.00;0.00;;;22.10;74.50;;;;;;5009238;28;20133;-67
2023/06/21 09:13:34;;;;;;;0.63;0.22;;;22.10;72.90;;;;;;5010245;28;20491;-66
2023/06/21 09:16:02;;;;;;;0.00;0.00;;;22.20;73.80;;;;;;5009853;28;20057;-66
2023/06/21 09:18:35;;;;;;;0.00;0.00;;;22.20;74.40;;;;;;5010089;28;20041;-66
2023/06/21 09:21:02;;;;;;;0.10;0.10;;;22.30;74.30;;;;;;5008694;28;20060;-67
2023/06/21 09:23:27;;;;;;;0.00;0.00;;;22.40;74.40;;;;;;4993376;28;20041;-67
2023/06/21 09:25:54;;;;;;;1.33;0.63;;;22.50;73.60;;;;;;5007074;28;20050;-67
2023/06/21 09:28:19;;;;;;;0.00;0.00;;;22.60;73.50;;;;;;5008418;28;20042;-66
2023/06/21 09:30:45;;;;;;;0.00;0.00;;;22.60;73.30;;;;;;5007411;28;20049;-66
2023/06/21 09:33:11;;;;;;;0.00;0.00;;;22.60;72.60;;;;;;5008475;28;20038;-66
2023/06/21 09:35:38;;;;;;;0.05;0.05;;;22.70;73.30;;;;;;5019074;28;20421;-66
2023/06/21 09:38:28;;;;;;;0.32;0.32;;;22.80;72.30;;;;;;5011206;28;20124;-66
2023/06/21 09:40:54;;;;;;;0.00;0.00;;;22.90;72.80;;;;;;5009690;28;20395;-66
2023/06/21 09:43:20;;;;;;;0.00;0.00;;;23.00;73.10;;;;;;5026784;28;20096;-66
2023/06/21 09:46:04;;;;;;;0.00;0.00;;;23.00;72.30;;;;;;5027872;28;20513;-67
2023/06/21 09:48:32;;;;;;;0.43;0.43;;;23.10;72.10;;;;;;5025856;28;20053;-69
2023/06/21 09:51:01;;;;;;;0.00;0.00;;;23.20;72.30;;;;;;5024225;28;20057;-72
2023/06/21 09:53:27;;;;;;;0.45;0.45;;;23.20;70.80;;;;;;5023354;28;20092;-66
2023/06/21 09:55:55;;;;;;;0.00;0.00;;;23.30;71.70;;;;;;5028409;28;20378;-70
2023/06/21 09:58:21;;;;;;;0.00;0.00;;;23.40;71.20;;;;;;5026349;28;20510;-65
2023/06/21 10:00:47;;;;;;;0.00;0.00;;;23.50;71.50;;;;;;5027272;28;20052;-65
2023/06/21 10:03:14;;;;;;;0.00;0.00;;;23.60;71.10;;;;;;5024577;28;20045;-65
2023/06/21 10:05:57;;;;;;;0.20;0.20;;;23.70;71.10;;;;;;5010312;28;20053;-65
2023/06/21 10:08:32;;;;;;;0.00;0.00;;;23.90;69.80;;;;;;5028104;28;20529;-65
2023/06/21 10:10:58;;;;;;;0.00;0.00;;;23.90;70.60;;;;;;5028553;28;20045;-62
2023/06/21 10:13:28;;;;;;;0.52;0.52;;;24.00;69.60;;;;;;5026115;28;20512;-66
2023/06/21 10:15:55;;;;;;;0.00;0.00;;;24.00;68.90;;;;;;5027859;28;20137;-66
2023/06/21 10:18:21;;;;;;;0.00;0.00;;;24.10;69.40;;;;;;5028438;28;20080;-66
2023/06/21 10:20:52;;;;;;;0.08;0.08;;;24.20;68.10;;;;;;5029553;28;20072;-68
2023/06/21 10:23:19;;;;;;;0.00;0.00;;;24.30;69.10;;;;;;5026546;28;20095;-68
2023/06/21 10:25:49;;;;;;;0.00;0.00;;;24.40;68.70;;;;;;5008013;28;20112;-67
2023/06/21 10:28:18;;;;;;;0.40;0.28;;;24.30;67.20;;;;;;5027772;28;20843;-68
2023/06/21 10:30:45;;;;;;;0.00;0.00;;;24.40;68.60;;;;;;5028227;28;20581;-67
2023/06/21 10:33:14;;;;;;;0.00;0.00;;;24.50;68.30;;;;;;5009618;28;20120;-67
2023/06/21 10:35:45;;;;;;;0.00;0.00;;;24.50;68.40;;;;;;5025861;28;20068;-67
2023/06/21 10:38:20;;;;;;;0.10;0.10;;;24.50;68.70;;;;;;5027181;28;20556;-68
2023/06/21 10:40:47;;;;;;;0.00;0.00;;;24.70;68.70;;;;;;5023667;28;20050;-68
2023/06/21 10:43:13;;;;;;;0.00;0.00;;;24.80;68.00;;;;;;4993210;28;20048;-67
2023/06/21 10:45:41;;;;;;;0.03;0.03;;;24.80;67.70;;;;;;5028953;28;20045;-66
2023/06/21 10:48:09;;;;;;;0.00;0.00;;;24.90;67.60;;;;;;5027077;28;20041;-66
2023/06/21 10:50:35;;;;;;;0.25;0.25;;;24.90;67.70;;;;;;5027534;28;20049;-66
2023/06/21 10:53:01;;;;;;;0.10;0.10;;;24.90;67.00;;;;;;5026684;28;20076;-68
2023/06/21 10:55:27;;;;;;;0.00;0.00;;;25.00;67.90;;;;;;5010799;28;20049;-67
2023/06/21 10:57:54;;;;;;;0.35;0.35;;;25.00;66.50;;;;;;5008671;28;20056;-67
2023/06/21 11:00:25;;;;;;;0.00;0.00;;;25.00;65.70;;;;;;5026579;28;20049;-66
2023/06/21 11:02:51;;;;;;;0.00;0.00;;;25.20;65.80;;;;;;5028109;28;20048;-66
2023/06/21 11:05:24;;;;;;;0.00;0.00;;;25.20;64.10;;;;;;5026716;28;20047;-66
2023/06/21 11:07:54;;;;;;;0.25;0.25;;;25.20;63.60;;;;;;5036650;28;20038;-66
2023/06/21 11:10:23;;;;;;;0.00;0.00;;;25.20;65.20;;;;;;5041755;28;20079;-67
2023/06/21 11:12:54;;;;;;;0.00;0.00;;;25.30;65.60;;;;;;5034131;28;20045;-66
2023/06/21 11:15:21;;;;;;;1.00;0.80;;;25.20;62.10;;;;;;5038540;28;20128;-67
2023/06/21 11:18:03;;;;;;;0.00;0.00;;;25.20;63.40;;;;;;5032075;28;20064;-66
2023/06/21 11:20:42;;;;;;;0.00;0.00;;;25.30;63.60;;;;;;5036625;28;20052;-66
2023/06/21 11:23:08;;;;;;;0.00;0.00;;;25.40;63.90;;;;;;5034952;28;20033;-66
2023/06/21 11:25:37;;;;;;;0.00;0.00;;;25.30;62.30;;;;;;5045608;28;20111;-66
2023/06/21 11:28:18;;;;;;;0.00;0.00;;;25.30;63.90;;;;;;5028794;28;20136;-66
2023/06/21 11:31:02;;;;;;;0.00;0.00;;;25.20;64.00;;;;;;5045521;28;20595;-67
2023/06/21 11:33:30;;;;;;;0.00;0.00;;;25.20;63.80;;;;;;5024988;28;20057;-66
2023/06/21 11:36:07;;;;;;;0.00;0.00;;;25.30;63.80;;;;;;5028738;28;20045;-66
2023/06/21 11:38:34;;;;;;;0.00;0.00;;;25.10;63.50;;;;;;5027280;28;20049;-66
2023/06/21 11:41:01;;;;;;;0.10;0.10;;;25.10;64.20;;;;;;5028933;28;20049;-66
2023/06/21 11:43:27;;;;;;;0.00;0.00;;;25.20;64.10;;;;;;5040774;28;20052;-66
2023/06/21 11:46:02;;;;;;;0.17;0.17;;;25.10;64.30;;;;;;5029125;28;20045;-68
2023/06/21 11:48:28;;;;;;;0.00;0.00;;;25.00;65.70;;;;;;5028092;28;20457;-66
2023/06/21 11:51:07;;;;;;;0.00;0.00;;;24.90;64.30;;;;;;5041883;28;20053;-67
2023/06/21 11:53:41;;;;;;;0.00;0.00;;;25.00;65.50;;;;;;5028337;28;20042;-66
2023/06/21 11:56:09;;;;;;;0.00;0.00;;;25.00;65.20;;;;;;5027734;28;20052;-67
2023/06/21 11:58:35;;;;;;;0.00;0.00;;;25.10;64.60;;;;;;5029870;28;20501;-66
2023/06/21 12:01:01;;;;;;;0.00;0.00;;;25.20;64.50;;;;;;5028523;28;20050;-66
2023/06/21 12:03:27;;;;;;;0.47;0.47;;;25.30;64.10;;;;;;5028376;28;20113;-66
2023/06/21 12:06:01;;;;;;;0.52;0.40;;;25.40;63.60;;;;;;5044887;28;20052;-67
2023/06/21 12:08:29;;;;;;;0.13;0.13;;;25.50;63.00;;;;;;5047434;28;20084;-66
2023/06/21 12:11:00;;;;;;;0.00;0.00;;;25.50;64.20;;;;;;5046341;28;20060;-66
2023/06/21 12:13:27;;;;;;;0.10;0.10;;;25.50;63.40;;;;;;5026877;28;20048;-65
2023/06/21 12:15:54;;;;;;;0.03;0.03;;;25.50;63.00;;;;;;5022241;28;20300;-66
2023/06/21 12:18:21;;;;;;;0.20;0.10;;;25.60;62.50;;;;;;5047452;28;20410;-66
2023/06/21 12:20:48;;;;;;;0.00;0.00;;;25.60;60.00;;;;;;5037398;28;20124;-66
2023/06/21 12:23:14;;;;;;;0.20;0.20;;;25.50;64.30;;;;;;5015074;28;20065;-66
2023/06/21 12:25:50;;;;;;;0.55;0.55;;;25.00;68.10;;;;;;5023395;28;20046;-66
2023/06/21 12:28:18;;;;;;;0.00;0.00;;;24.80;68.40;;;;;;5024685;28;20049;-66
2023/06/21 12:30:48;;;;;;;2.65;0.90;;;24.50;69.30;;;;;;5024665;28;20120;-67
2023/06/21 12:33:14;;;;;;;6.20;0.95;;;24.30;70.40;;;;;;5023963;28;20045;-66
2023/06/21 12:35:40;;;;;;;5.50;1.55;;;24.20;71.00;;;;;;5025039;28;20588;-66
2023/06/21 12:38:19;;;;;;;1.65;0.85;;;24.20;71.20;;;;;;5024023;28;20053;-67
2023/06/21 12:40:58;;;;;;;0.40;0.35;;;24.40;69.10;;;;;;5003994;28;20486;-67
2023/06/21 12:43:47;;;;;;;0.98;0.93;;;24.20;70.30;;;;;;5023755;28;20402;-67
2023/06/21 12:46:13;;;;;;;2.75;1.75;;;24.20;70.00;;;;;;5006552;28;20049;-67
2023/06/21 12:48:58;;;;;;;0.00;0.00;;;24.20;69.20;;;;;;5023367;28;20052;-66
2023/06/21 12:51:33;;;;;;;0.10;0.10;;;24.20;69.10;;;;;;5024020;28;20494;-67